createdAt,value
2022-08-28T00:04:14.513Z,60.17
2022-08-28T00:08:33.382Z,61.00
2022-08-28T00:12:50.527Z,62.14
2022-08-28T00:17:06.642Z,64.26
2022-08-28T00:21:22.693Z,64.45
2022-08-28T00:25:38.689Z,66.30
2022-08-28T00:29:54.863Z,66.61
2022-08-28T00:34:11.168Z,66.23
2022-08-28T00:38:28.914Z,65.63
2022-08-28T00:42:47.048Z,64.29
2022-08-28T00:47:03.502Z,63.42
2022-08-28T00:51:38.981Z,64.09
2022-08-28T00:55:55.058Z,63.72
2022-08-28T01:00:14.333Z,62.46
2022-08-28T01:04:32.497Z,62.02
2022-08-28T01:08:50.405Z,62.66
2022-08-28T01:13:06.801Z,61.63
2022-08-28T01:17:24.587Z,62.22
2022-08-28T01:21:50.538Z,62.04
2022-08-28T01:26:06.606Z,62.54
2022-08-28T01:30:27.227Z,62.95
2022-08-28T01:34:43.207Z,62.57
2022-08-28T01:39:22.917Z,61.30
2022-08-28T01:43:40.425Z,62.04
2022-08-28T01:47:56.508Z,62.17
2022-08-28T01:52:12.497Z,62.74
2022-08-28T01:56:28.614Z,62.79
2022-08-28T02:00:45.200Z,62.72
2022-08-28T02:05:01.216Z,62.68
2022-08-28T02:09:17.750Z,62.78
2022-08-28T02:13:36.302Z,61.61
2022-08-28T02:17:53.730Z,62.16
2022-08-28T02:22:09.824Z,63.27
2022-08-28T02:26:26.150Z,62.41
2022-08-28T02:30:42.337Z,61.03
2022-08-28T02:34:58.463Z,60.49
2022-08-28T02:39:14.510Z,60.33
2022-08-28T02:43:31.077Z,59.80
2022-08-28T02:47:47.708Z,58.94
2022-08-28T02:52:05.027Z,59.03
2022-08-28T02:56:21.015Z,59.25
2022-08-28T03:00:37.147Z,60.48
2022-08-28T03:04:54.616Z,61.37
2022-08-28T03:09:10.671Z,64.41
2022-08-28T03:13:27.596Z,64.84
2022-08-28T03:17:43.877Z,62.66
2022-08-28T03:22:00.440Z,61.70
2022-08-28T03:26:19.357Z,61.11
2022-08-28T03:30:35.414Z,63.87
2022-08-28T03:34:51.407Z,64.56
2022-08-28T03:39:07.953Z,66.05
2022-08-28T03:43:24.839Z,65.79
2022-08-28T03:47:42.217Z,66.37
2022-08-28T03:51:59.430Z,65.83
2022-08-28T03:56:19.099Z,65.96
2022-08-28T04:00:35.516Z,64.45
2022-08-28T04:04:51.844Z,64.34
2022-08-28T04:09:07.845Z,63.73
2022-08-28T04:13:23.913Z,63.88
2022-08-28T04:17:41.193Z,65.23
2022-08-28T04:21:57.275Z,64.52
2022-08-28T04:26:15.713Z,63.69
2022-08-28T04:30:31.680Z,63.35
2022-08-28T04:34:47.615Z,63.15
2022-08-28T04:39:06.078Z,62.41
2022-08-28T04:43:21.974Z,62.35
2022-08-28T04:47:38.599Z,63.49
2022-08-28T04:51:55.014Z,64.85
2022-08-28T04:56:13.748Z,65.39
2022-08-28T05:00:29.702Z,66.30
2022-08-28T05:04:45.669Z,65.71
2022-08-28T05:09:03.879Z,64.70
2022-08-28T05:13:20.888Z,63.89
2022-08-28T05:17:36.928Z,64.45
2022-08-28T05:21:53.181Z,65.75
2022-08-28T05:26:16.799Z,66.06
2022-08-28T05:30:33.620Z,66.43
2022-08-28T05:34:50.271Z,65.20
2022-08-28T05:39:10.836Z,65.38
2022-08-28T05:43:27.284Z,66.37
2022-08-28T05:47:43.791Z,66.26
2022-08-28T05:51:59.807Z,66.41
2022-08-28T05:56:18.194Z,66.25
2022-08-28T06:00:34.136Z,66.10
2022-08-28T06:04:50.420Z,65.07
2022-08-28T06:09:10.285Z,65.02
2022-08-28T06:13:26.322Z,63.84
2022-08-28T06:17:42.395Z,63.07
2022-08-28T06:22:00.992Z,63.35
2022-08-28T06:26:23.271Z,63.14
2022-08-28T06:30:40.745Z,60.35
2022-08-28T06:35:13.571Z,60.93
2022-08-28T06:39:29.622Z,59.43
2022-08-28T06:43:45.589Z,60.09
2022-08-28T06:48:01.944Z,60.21
2022-08-28T06:52:18.176Z,60.89
2022-08-28T06:56:34.451Z,58.85
2022-08-28T07:00:58.121Z,58.24
2022-08-28T07:05:17.213Z,57.13
2022-08-28T07:09:33.226Z,56.44
2022-08-28T07:13:49.476Z,57.46
2022-08-28T07:18:05.513Z,57.31
2022-08-28T07:22:22.046Z,56.76
2022-08-28T07:26:41.030Z,55.89
2022-08-28T07:31:09.997Z,56.14
2022-08-28T07:35:26.285Z,55.81
2022-08-28T07:39:42.638Z,56.05
2022-08-28T07:44:17.681Z,55.84
2022-08-28T07:48:38.343Z,56.11
2022-08-28T07:52:54.386Z,55.68
2022-08-28T07:57:10.577Z,55.13
2022-08-28T08:01:30.606Z,57.42
2022-08-28T08:05:55.334Z,55.63
2022-08-28T08:10:15.124Z,55.52
2022-08-28T08:14:37.646Z,54.21
2022-08-28T08:18:53.634Z,52.70
2022-08-28T08:23:09.778Z,52.23
2022-08-28T08:27:25.808Z,53.16
2022-08-28T08:31:43.944Z,52.33
2022-08-28T08:36:01.255Z,52.70
2022-08-28T08:40:19.729Z,51.91
2022-08-28T08:44:42.609Z,52.74
2022-08-28T08:49:03.322Z,51.96
2022-08-28T08:53:43.309Z,52.69
2022-08-28T08:58:25.715Z,50.83
2022-08-28T09:02:53.102Z,52.34
2022-08-28T09:07:15.887Z,52.02
2022-08-28T09:11:45.758Z,51.12
2022-08-28T09:16:16.740Z,48.64
2022-08-28T09:20:33.555Z,48.08
2022-08-28T09:24:50.360Z,48.46
2022-08-28T09:29:20.039Z,46.30
2022-08-28T09:33:48.410Z,47.58
2022-08-28T09:38:27.698Z,47.56
2022-08-28T09:43:25.703Z,47.47
2022-08-28T09:47:50.866Z,50.43
2022-08-28T09:52:25.026Z,50.49
2022-08-28T09:56:42.440Z,48.84
2022-08-28T10:01:05.410Z,49.83
2022-08-28T10:05:53.012Z,52.11
2022-08-28T10:10:12.041Z,49.49
2022-08-28T10:14:44.633Z,50.82
2022-08-28T10:19:16.534Z,51.62
2022-08-28T10:23:35.313Z,51.58
2022-08-28T10:28:12.458Z,49.45
2022-08-28T10:33:07.402Z,48.83
2022-08-28T10:37:52.945Z,46.79
2022-08-28T10:42:09.218Z,45.51
2022-08-28T10:46:30.722Z,44.15
2022-08-28T10:50:50.979Z,42.83
2022-08-28T10:55:27.292Z,41.02
2022-08-28T10:59:46.674Z,41.69
2022-08-28T11:04:08.135Z,40.28
2022-08-28T11:08:31.311Z,40.50
2022-08-28T11:12:49.402Z,38.92
2022-08-28T11:17:08.308Z,36.96
2022-08-28T11:21:44.562Z,38.06
2022-08-28T11:26:04.929Z,37.85
2022-08-28T11:30:31.889Z,36.63
2022-08-28T11:34:59.086Z,37.38
2022-08-28T11:39:14.933Z,35.06
2022-08-28T11:43:31.253Z,36.95
2022-08-28T11:47:53.095Z,35.54
2022-08-28T11:52:30.186Z,36.56
2022-08-28T11:56:48.929Z,39.41
2022-08-28T12:01:10.849Z,37.68
2022-08-28T12:05:32.699Z,39.08
2022-08-28T12:09:49.938Z,38.35
2022-08-28T12:14:08.199Z,38.57
2022-08-28T12:18:40.369Z,39.47
2022-08-28T12:22:59.452Z,38.78
2022-08-28T12:27:15.891Z,38.38
2022-08-28T12:31:58.823Z,37.85
2022-08-28T12:36:18.791Z,36.90
2022-08-28T12:40:50.437Z,36.89
2022-08-28T12:45:08.654Z,37.26
2022-08-28T12:49:34.306Z,38.49
2022-08-28T12:53:53.271Z,37.28
2022-08-28T12:58:29.394Z,38.63
2022-08-28T13:02:50.079Z,36.93
2022-08-28T13:07:17.354Z,36.78
2022-08-28T13:11:39.216Z,37.59
2022-08-28T13:16:03.986Z,35.75
2022-08-28T13:20:46.481Z,35.87
2022-08-28T13:25:03.221Z,36.85
2022-08-28T13:29:22.027Z,37.81
2022-08-28T13:33:37.962Z,37.14
2022-08-28T13:38:00.486Z,37.18
2022-08-28T13:42:18.159Z,36.26
2022-08-28T13:46:34.680Z,36.65
2022-08-28T13:50:58.754Z,36.76
2022-08-28T13:55:15.070Z,34.53
2022-08-28T13:59:32.137Z,33.39
2022-08-28T14:03:48.077Z,34.68
2022-08-28T14:08:05.395Z,33.68
2022-08-28T14:12:21.362Z,33.24
2022-08-28T14:16:47.678Z,32.56
2022-08-28T14:21:06.377Z,34.34
2022-08-28T14:25:22.353Z,33.48
2022-08-28T14:29:39.004Z,32.59
2022-08-28T14:33:56.998Z,32.91
2022-08-28T14:38:13.884Z,33.05
2022-08-28T14:42:30.373Z,34.04
2022-08-28T14:46:57.091Z,32.97
2022-08-28T14:51:14.067Z,33.49
2022-08-28T14:55:29.980Z,32.39
2022-08-28T14:59:46.031Z,31.08
2022-08-28T15:04:02.427Z,31.54
2022-08-28T15:08:18.515Z,32.17
2022-08-28T15:12:34.440Z,32.62
2022-08-28T15:16:52.759Z,31.42
2022-08-28T15:21:20.704Z,32.53
2022-08-28T15:25:38.595Z,33.00
2022-08-28T15:29:58.530Z,34.23
2022-08-28T15:34:21.241Z,33.55
2022-08-28T15:38:56.851Z,32.67
2022-08-28T15:43:14.395Z,34.70
2022-08-28T15:47:30.985Z,35.03
2022-08-28T15:51:47.564Z,34.15
2022-08-28T15:56:03.715Z,35.04
2022-08-28T16:00:20.130Z,34.94
2022-08-28T16:04:37.027Z,36.31
2022-08-28T16:08:52.987Z,36.57
2022-08-28T16:13:10.164Z,35.49
2022-08-28T16:17:26.272Z,35.83
2022-08-28T16:21:43.201Z,35.95
2022-08-28T16:26:00.162Z,36.11
2022-08-28T16:30:16.289Z,38.88
2022-08-28T16:34:36.970Z,39.58
2022-08-28T16:39:00.355Z,38.08
2022-08-28T16:43:20.861Z,39.03
2022-08-28T16:47:36.887Z,38.62
2022-08-28T16:51:53.089Z,39.61
2022-08-28T16:56:10.677Z,40.02
2022-08-28T17:00:27.287Z,42.08
2022-08-28T17:04:43.834Z,42.40
2022-08-28T17:09:00.847Z,42.55
2022-08-28T17:13:16.844Z,41.91
2022-08-28T17:17:33.263Z,41.57
2022-08-28T17:22:08.142Z,42.05
2022-08-28T17:26:25.064Z,41.36
2022-08-28T17:30:41.889Z,43.00
2022-08-28T17:34:58.193Z,42.91
2022-08-28T17:39:16.011Z,42.65
2022-08-28T17:43:35.879Z,42.98
2022-08-28T17:47:52.899Z,43.25
2022-08-28T17:52:08.843Z,44.17
2022-08-28T17:56:36.183Z,45.36
2022-08-28T18:00:52.300Z,45.39
2022-08-28T18:05:10.679Z,45.20
2022-08-28T18:09:26.611Z,44.86
2022-08-28T18:13:44.213Z,45.95
2022-08-28T18:18:03.523Z,46.41
2022-08-28T18:22:20.615Z,46.65
2022-08-28T18:26:38.434Z,47.12
2022-08-28T18:30:55.184Z,46.74
2022-08-28T18:35:17.694Z,46.15
2022-08-28T18:39:47.823Z,47.08
2022-08-28T18:44:07.633Z,46.34
2022-08-28T18:48:24.438Z,47.16
2022-08-28T18:52:41.279Z,46.96
2022-08-28T18:57:03.912Z,47.54
2022-08-28T19:01:20.621Z,47.64
2022-08-28T19:05:37.267Z,47.95
2022-08-28T19:09:56.305Z,49.25
2022-08-28T19:14:12.356Z,48.45
2022-08-28T19:18:30.045Z,49.44
2022-08-28T19:22:46.563Z,49.45
2022-08-28T19:27:03.569Z,49.46
2022-08-28T19:31:19.855Z,50.12
2022-08-28T19:35:40.117Z,49.75
2022-08-28T19:39:56.712Z,50.07
2022-08-28T19:44:15.221Z,50.13
2022-08-28T19:48:31.306Z,49.05
2022-08-28T19:52:47.414Z,48.51
2022-08-28T19:57:03.917Z,48.70
2022-08-28T20:01:20.959Z,49.24
2022-08-28T20:05:38.405Z,50.06
2022-08-28T20:09:54.607Z,49.97
2022-08-28T20:14:10.943Z,50.85
2022-08-28T20:18:26.935Z,52.69
2022-08-28T20:22:43.185Z,53.42
2022-08-28T20:26:59.231Z,53.28
2022-08-28T20:31:18.020Z,52.66
2022-08-28T20:35:34.034Z,52.28
2022-08-28T20:39:50.224Z,52.99
2022-08-28T20:44:07.839Z,53.01
2022-08-28T20:48:23.998Z,52.96
2022-08-28T20:52:40.344Z,52.53
2022-08-28T20:56:58.549Z,52.98
2022-08-28T21:01:14.506Z,53.11
2022-08-28T21:05:31.323Z,53.83
2022-08-28T21:10:05.529Z,54.14
2022-08-28T21:14:25.518Z,54.10
2022-08-28T21:18:59.092Z,54.41
2022-08-28T21:23:18.133Z,54.77
2022-08-28T21:27:34.737Z,55.10
2022-08-28T21:31:52.572Z,55.21
2022-08-28T21:36:10.315Z,55.35
2022-08-28T21:40:26.381Z,55.51
2022-08-28T21:44:51.456Z,55.41
2022-08-28T21:49:08.081Z,56.02
2022-08-28T21:53:24.367Z,56.00
2022-08-28T21:57:40.359Z,56.45
2022-08-28T22:01:57.455Z,57.48
2022-08-28T22:06:16.506Z,57.83
2022-08-28T22:10:32.532Z,57.72
2022-08-28T22:14:48.666Z,57.41
2022-08-28T22:19:04.830Z,56.86
2022-08-28T22:23:21.430Z,57.50
2022-08-28T22:27:37.492Z,57.51
2022-08-28T22:31:53.583Z,57.20
2022-08-28T22:36:10.962Z,56.99
2022-08-28T22:40:27.750Z,57.98
2022-08-28T22:44:43.804Z,57.76
2022-08-28T22:48:59.754Z,57.68
2022-08-28T22:53:17.179Z,58.10
2022-08-28T22:57:33.147Z,58.15
2022-08-28T23:01:49.259Z,58.87
2022-08-28T23:06:05.321Z,59.22
2022-08-28T23:10:32.234Z,59.03
2022-08-28T23:14:58.392Z,58.74
2022-08-28T23:19:14.561Z,58.94
2022-08-28T23:23:30.503Z,58.93
2022-08-28T23:27:47.091Z,59.98
2022-08-28T23:32:03.375Z,59.34
2022-08-28T23:36:19.338Z,59.19
2022-08-28T23:40:37.491Z,60.28
2022-08-28T23:44:53.479Z,60.50
2022-08-28T23:49:10.608Z,61.26
2022-08-28T23:53:26.907Z,62.38
2022-08-28T23:57:44.221Z,62.94
